sensor_id;sensor_type;location;lat;lon;timestamp;temperature;humidity
41720;DHT22;27405;53.316;-6.294;2022-08-01T00:00:13;16.70;74.30
41720;DHT22;27405;53.316;-6.294;2022-08-01T00:02:40;16.60;74.40
41720;DHT22;27405;53.316;-6.294;2022-08-01T00:05:07;16.50;74.40
41720;DHT22;27405;53.316;-6.294;2022-08-01T00:07:34;16.50;74.60
41720;DHT22;27405;53.316;-6.294;2022-08-01T00:09:59;16.40;74.70
41720;DHT22;27405;53.316;-6.294;2022-08-01T00:12:25;16.30;74.80
41720;DHT22;27405;53.316;-6.294;2022-08-01T00:14:51;16.30;74.80
41720;DHT22;27405;53.316;-6.294;2022-08-01T00:17:17;16.30;75.00
41720;DHT22;27405;53.316;-6.294;2022-08-01T00:19:42;16.30;75.00
41720;DHT22;27405;53.316;-6.294;2022-08-01T00:22:08;16.30;75.00
41720;DHT22;27405;53.316;-6.294;2022-08-01T00:24:34;16.30;75.10
41720;DHT22;27405;53.316;-6.294;2022-08-01T00:27:00;16.20;75.20
41720;DHT22;27405;53.316;-6.294;2022-08-01T00:29:25;16.30;75.40
41720;DHT22;27405;53.316;-6.294;2022-08-01T00:31:51;16.30;75.50
41720;DHT22;27405;53.316;-6.294;2022-08-01T00:34:17;16.30;75.30
41720;DHT22;27405;53.316;-6.294;2022-08-01T00:36:43;16.30;75.30
41720;DHT22;27405;53.316;-6.294;2022-08-01T00:39:08;16.30;75.20
41720;DHT22;27405;53.316;-6.294;2022-08-01T00:41:34;16.20;75.20
41720;DHT22;27405;53.316;-6.294;2022-08-01T00:44:04;16.20;75.20
41720;DHT22;27405;53.316;-6.294;2022-08-01T00:46:30;16.10;75.30
41720;DHT22;27405;53.316;-6.294;2022-08-01T00:48:56;16.10;75.40
41720;DHT22;27405;53.316;-6.294;2022-08-01T00:51:22;16.00;75.60
41720;DHT22;27405;53.316;-6.294;2022-08-01T00:53:49;15.90;75.80
41720;DHT22;27405;53.316;-6.294;2022-08-01T00:56:15;15.90;76.00
41720;DHT22;27405;53.316;-6.294;2022-08-01T00:58:41;15.90;76.20
41720;DHT22;27405;53.316;-6.294;2022-08-01T01:01:08;15.80;76.30
41720;DHT22;27405;53.316;-6.294;2022-08-01T01:03:33;15.80;76.50
41720;DHT22;27405;53.316;-6.294;2022-08-01T01:06:13;15.80;76.50
41720;DHT22;27405;53.316;-6.294;2022-08-01T01:08:46;15.70;76.60
41720;DHT22;27405;53.316;-6.294;2022-08-01T01:11:47;15.70;76.70
41720;DHT22;27405;53.316;-6.294;2022-08-01T01:17:17;15.60;77.10
41720;DHT22;27405;53.316;-6.294;2022-08-01T01:19:51;15.60;77.10
41720;DHT22;27405;53.316;-6.294;2022-08-01T01:30:36;15.60;77.40
41720;DHT22;27405;53.316;-6.294;2022-08-01T01:33:06;15.60;77.30
41720;DHT22;27405;53.316;-6.294;2022-08-01T01:35:41;15.70;77.40
41720;DHT22;27405;53.316;-6.294;2022-08-01T01:38:13;15.60;77.40
41720;DHT22;27405;53.316;-6.294;2022-08-01T01:40:40;15.70;77.50
41720;DHT22;27405;53.316;-6.294;2022-08-01T01:43:10;15.70;77.50
41720;DHT22;27405;53.316;-6.294;2022-08-01T01:45:37;15.70;77.50
41720;DHT22;27405;53.316;-6.294;2022-08-01T01:48:05;15.70;77.50
41720;DHT22;27405;53.316;-6.294;2022-08-01T01:50:32;15.60;77.60
41720;DHT22;27405;53.316;-6.294;2022-08-01T01:52:59;15.60;77.70
41720;DHT22;27405;53.316;-6.294;2022-08-01T01:55:26;15.60;77.90
41720;DHT22;27405;53.316;-6.294;2022-08-01T01:57:54;15.60;77.90
41720;DHT22;27405;53.316;-6.294;2022-08-01T02:00:21;15.60;78.00
41720;DHT22;27405;53.316;-6.294;2022-08-01T02:02:48;15.50;78.10
41720;DHT22;27405;53.316;-6.294;2022-08-01T02:05:15;15.50;78.80
41720;DHT22;27405;53.316;-6.294;2022-08-01T02:07:41;15.50;78.20
41720;DHT22;27405;53.316;-6.294;2022-08-01T02:10:10;15.50;78.30
41720;DHT22;27405;53.316;-6.294;2022-08-01T02:12:38;15.50;78.60
41720;DHT22;27405;53.316;-6.294;2022-08-01T02:15:05;15.40;79.20
41720;DHT22;27405;53.316;-6.294;2022-08-01T02:17:31;15.40;78.60
41720;DHT22;27405;53.316;-6.294;2022-08-01T02:19:58;15.40;78.60
41720;DHT22;27405;53.316;-6.294;2022-08-01T02:22:37;15.40;78.70
41720;DHT22;27405;53.316;-6.294;2022-08-01T02:28:04;15.40;79.00
41720;DHT22;27405;53.316;-6.294;2022-08-01T02:30:37;15.30;78.90
41720;DHT22;27405;53.316;-6.294;2022-08-01T02:33:25;15.30;78.90
41720;DHT22;27405;53.316;-6.294;2022-08-01T02:35:56;15.30;79.10
41720;DHT22;27405;53.316;-6.294;2022-08-01T02:38:25;15.30;79.10
41720;DHT22;27405;53.316;-6.294;2022-08-01T02:40:53;15.30;79.30
41720;DHT22;27405;53.316;-6.294;2022-08-01T02:43:21;15.20;79.30
41720;DHT22;27405;53.316;-6.294;2022-08-01T02:45:52;15.20;79.50
41720;DHT22;27405;53.316;-6.294;2022-08-01T02:48:19;15.20;79.60
41720;DHT22;27405;53.316;-6.294;2022-08-01T02:50:48;15.30;79.60
41720;DHT22;27405;53.316;-6.294;2022-08-01T02:53:18;15.20;79.70
41720;DHT22;27405;53.316;-6.294;2022-08-01T02:55:45;15.20;79.80
41720;DHT22;27405;53.316;-6.294;2022-08-01T02:58:15;15.20;79.80
41720;DHT22;27405;53.316;-6.294;2022-08-01T03:00:43;15.20;80.00
41720;DHT22;27405;53.316;-6.294;2022-08-01T03:03:10;15.10;80.00
41720;DHT22;27405;53.316;-6.294;2022-08-01T03:05:37;15.10;80.00
41720;DHT22;27405;53.316;-6.294;2022-08-01T03:08:06;15.10;80.20
41720;DHT22;27405;53.316;-6.294;2022-08-01T03:10:32;15.10;80.30
41720;DHT22;27405;53.316;-6.294;2022-08-01T03:13:01;15.10;80.30
41720;DHT22;27405;53.316;-6.294;2022-08-01T03:15:31;15.10;80.50
41720;DHT22;27405;53.316;-6.294;2022-08-01T03:17:59;15.00;80.70
41720;DHT22;27405;53.316;-6.294;2022-08-01T03:20:28;15.00;80.60
41720;DHT22;27405;53.316;-6.294;2022-08-01T03:22:57;15.00;80.80
41720;DHT22;27405;53.316;-6.294;2022-08-01T03:25:25;14.90;80.90
41720;DHT22;27405;53.316;-6.294;2022-08-01T03:27:56;14.90;81.00
41720;DHT22;27405;53.316;-6.294;2022-08-01T03:30:26;14.90;81.00
41720;DHT22;27405;53.316;-6.294;2022-08-01T03:32:52;14.90;81.10
41720;DHT22;27405;53.316;-6.294;2022-08-01T03:35:19;14.90;81.20
41720;DHT22;27405;53.316;-6.294;2022-08-01T03:37:51;14.80;81.20
41720;DHT22;27405;53.316;-6.294;2022-08-01T03:40:35;14.80;81.20
41720;DHT22;27405;53.316;-6.294;2022-08-01T03:43:52;14.80;81.40
41720;DHT22;27405;53.316;-6.294;2022-08-01T03:46:12;14.70;81.50
41720;DHT22;27405;53.316;-6.294;2022-08-01T03:48:47;14.70;81.40
41720;DHT22;27405;53.316;-6.294;2022-08-01T03:51:14;14.70;81.70
41720;DHT22;27405;53.316;-6.294;2022-08-01T03:53:41;14.70;81.70
41720;DHT22;27405;53.316;-6.294;2022-08-01T03:56:08;14.70;81.90
41720;DHT22;27405;53.316;-6.294;2022-08-01T03:58:38;14.60;82.00
41720;DHT22;27405;53.316;-6.294;2022-08-01T04:01:05;14.60;82.20
41720;DHT22;27405;53.316;-6.294;2022-08-01T04:03:32;14.60;82.30
41720;DHT22;27405;53.316;-6.294;2022-08-01T04:05:58;14.50;82.30
41720;DHT22;27405;53.316;-6.294;2022-08-01T04:08:42;14.50;82.40
41720;DHT22;27405;53.316;-6.294;2022-08-01T04:11:09;14.50;82.60
41720;DHT22;27405;53.316;-6.294;2022-08-01T04:13:35;14.50;82.60
41720;DHT22;27405;53.316;-6.294;2022-08-01T04:16:00;14.50;82.60
41720;DHT22;27405;53.316;-6.294;2022-08-01T04:18:26;14.40;82.60
41720;DHT22;27405;53.316;-6.294;2022-08-01T04:20:52;14.40;82.80
41720;DHT22;27405;53.316;-6.294;2022-08-01T04:23:22;14.40;82.80
41720;DHT22;27405;53.316;-6.294;2022-08-01T04:25:50;14.40;83.00
41720;DHT22;27405;53.316;-6.294;2022-08-01T04:28:17;14.30;82.90
41720;DHT22;27405;53.316;-6.294;2022-08-01T04:30:46;14.30;83.20
41720;DHT22;27405;53.316;-6.294;2022-08-01T04:33:15;14.30;83.30
41720;DHT22;27405;53.316;-6.294;2022-08-01T04:35:46;14.30;83.40
41720;DHT22;27405;53.316;-6.294;2022-08-01T04:38:17;14.30;83.50
41720;DHT22;27405;53.316;-6.294;2022-08-01T04:40:45;14.20;83.50
41720;DHT22;27405;53.316;-6.294;2022-08-01T04:43:14;14.20;83.60
41720;DHT22;27405;53.316;-6.294;2022-08-01T04:45:40;14.30;83.80
41720;DHT22;27405;53.316;-6.294;2022-08-01T04:48:09;14.30;83.80
41720;DHT22;27405;53.316;-6.294;2022-08-01T04:50:36;14.20;83.80
41720;DHT22;27405;53.316;-6.294;2022-08-01T04:53:03;14.20;83.90
41720;DHT22;27405;53.316;-6.294;2022-08-01T04:55:29;14.20;83.90
41720;DHT22;27405;53.316;-6.294;2022-08-01T04:57:54;14.20;83.80
41720;DHT22;27405;53.316;-6.294;2022-08-01T05:00:20;14.20;83.80
41720;DHT22;27405;53.316;-6.294;2022-08-01T05:02:46;14.20;83.90
41720;DHT22;27405;53.316;-6.294;2022-08-01T05:05:12;14.10;83.90
41720;DHT22;27405;53.316;-6.294;2022-08-01T05:07:38;14.10;84.00
41720;DHT22;27405;53.316;-6.294;2022-08-01T05:10:05;14.10;84.10
41720;DHT22;27405;53.316;-6.294;2022-08-01T05:12:31;14.10;84.10
41720;DHT22;27405;53.316;-6.294;2022-08-01T05:15:00;14.10;84.10
41720;DHT22;27405;53.316;-6.294;2022-08-01T05:17:27;14.10;84.20
41720;DHT22;27405;53.316;-6.294;2022-08-01T05:19:52;14.10;84.20
41720;DHT22;27405;53.316;-6.294;2022-08-01T05:22:18;14.10;84.40
41720;DHT22;27405;53.316;-6.294;2022-08-01T05:24:44;14.10;84.40
41720;DHT22;27405;53.316;-6.294;2022-08-01T05:27:09;14.10;85.00
41720;DHT22;27405;53.316;-6.294;2022-08-01T05:29:35;14.10;84.40
41720;DHT22;27405;53.316;-6.294;2022-08-01T05:32:02;14.00;84.30
41720;DHT22;27405;53.316;-6.294;2022-08-01T05:34:28;14.10;84.60
41720;DHT22;27405;53.316;-6.294;2022-08-01T05:36:53;14.00;84.60
41720;DHT22;27405;53.316;-6.294;2022-08-01T05:39:19;14.10;84.80
41720;DHT22;27405;53.316;-6.294;2022-08-01T05:41:45;14.10;84.80
41720;DHT22;27405;53.316;-6.294;2022-08-01T05:44:11;14.10;84.70
41720;DHT22;27405;53.316;-6.294;2022-08-01T05:46:36;14.10;84.70
41720;DHT22;27405;53.316;-6.294;2022-08-01T05:49:04;14.20;84.70
41720;DHT22;27405;53.316;-6.294;2022-08-01T05:51:30;14.20;84.80
41720;DHT22;27405;53.316;-6.294;2022-08-01T05:53:56;14.20;84.80
41720;DHT22;27405;53.316;-6.294;2022-08-01T05:56:22;14.20;84.90
41720;DHT22;27405;53.316;-6.294;2022-08-01T05:58:49;14.30;85.00
41720;DHT22;27405;53.316;-6.294;2022-08-01T06:01:16;14.30;85.00
41720;DHT22;27405;53.316;-6.294;2022-08-01T06:03:42;14.40;85.00
41720;DHT22;27405;53.316;-6.294;2022-08-01T06:06:08;14.40;85.00
41720;DHT22;27405;53.316;-6.294;2022-08-01T06:08:33;14.40;85.00
41720;DHT22;27405;53.316;-6.294;2022-08-01T06:10:59;14.50;85.00
41720;DHT22;27405;53.316;-6.294;2022-08-01T06:13:25;14.50;84.90
41720;DHT22;27405;53.316;-6.294;2022-08-01T06:15:51;14.60;85.00
41720;DHT22;27405;53.316;-6.294;2022-08-01T06:18:17;14.60;85.00
41720;DHT22;27405;53.316;-6.294;2022-08-01T06:20:43;14.60;85.00
41720;DHT22;27405;53.316;-6.294;2022-08-01T06:23:09;14.70;85.00
41720;DHT22;27405;53.316;-6.294;2022-08-01T06:25:35;14.70;85.00
41720;DHT22;27405;53.316;-6.294;2022-08-01T06:28:01;14.70;85.00
41720;DHT22;27405;53.316;-6.294;2022-08-01T06:30:27;14.80;85.00
41720;DHT22;27405;53.316;-6.294;2022-08-01T06:32:53;14.90;85.00
41720;DHT22;27405;53.316;-6.294;2022-08-01T06:35:21;14.90;84.90
41720;DHT22;27405;53.316;-6.294;2022-08-01T06:37:46;14.90;84.90
41720;DHT22;27405;53.316;-6.294;2022-08-01T06:40:13;15.00;84.90
41720;DHT22;27405;53.316;-6.294;2022-08-01T06:42:38;15.00;84.90
41720;DHT22;27405;53.316;-6.294;2022-08-01T06:45:08;15.00;84.80
41720;DHT22;27405;53.316;-6.294;2022-08-01T06:47:35;15.10;84.80
41720;DHT22;27405;53.316;-6.294;2022-08-01T06:50:01;15.10;84.80
41720;DHT22;27405;53.316;-6.294;2022-08-01T06:52:28;15.10;84.80
41720;DHT22;27405;53.316;-6.294;2022-08-01T06:54:53;15.10;84.70
41720;DHT22;27405;53.316;-6.294;2022-08-01T06:57:19;15.20;84.60
41720;DHT22;27405;53.316;-6.294;2022-08-01T06:59:45;15.20;84.50
41720;DHT22;27405;53.316;-6.294;2022-08-01T07:02:11;15.30;84.50
41720;DHT22;27405;53.316;-6.294;2022-08-01T07:04:36;15.30;84.40
41720;DHT22;27405;53.316;-6.294;2022-08-01T07:07:02;15.40;84.40
41720;DHT22;27405;53.316;-6.294;2022-08-01T07:09:28;15.50;84.30
41720;DHT22;27405;53.316;-6.294;2022-08-01T07:11:54;15.50;84.10
41720;DHT22;27405;53.316;-6.294;2022-08-01T07:14:21;15.60;84.10
41720;DHT22;27405;53.316;-6.294;2022-08-01T07:16:47;15.70;84.10
41720;DHT22;27405;53.316;-6.294;2022-08-01T07:19:13;15.70;83.90
41720;DHT22;27405;53.316;-6.294;2022-08-01T07:21:39;15.70;83.70
41720;DHT22;27405;53.316;-6.294;2022-08-01T07:24:06;15.80;83.60
41720;DHT22;27405;53.316;-6.294;2022-08-01T07:26:32;15.80;83.30
41720;DHT22;27405;53.316;-6.294;2022-08-01T07:28:58;15.90;83.30
41720;DHT22;27405;53.316;-6.294;2022-08-01T07:31:24;15.90;83.10
41720;DHT22;27405;53.316;-6.294;2022-08-01T07:33:50;16.00;83.10
41720;DHT22;27405;53.316;-6.294;2022-08-01T07:36:16;16.00;82.80
41720;DHT22;27405;53.316;-6.294;2022-08-01T07:38:42;16.10;82.70
41720;DHT22;27405;53.316;-6.294;2022-08-01T07:41:08;16.20;82.60
41720;DHT22;27405;53.316;-6.294;2022-08-01T07:43:34;16.20;82.50
41720;DHT22;27405;53.316;-6.294;2022-08-01T07:46:04;16.30;82.40
41720;DHT22;27405;53.316;-6.294;2022-08-01T07:48:30;16.30;82.20
41720;DHT22;27405;53.316;-6.294;2022-08-01T07:50:55;16.30;82.20
41720;DHT22;27405;53.316;-6.294;2022-08-01T07:53:21;16.40;82.10
41720;DHT22;27405;53.316;-6.294;2022-08-01T07:55:47;16.50;82.00
41720;DHT22;27405;53.316;-6.294;2022-08-01T07:58:14;16.50;81.80
41720;DHT22;27405;53.316;-6.294;2022-08-01T08:00:39;16.50;81.60
41720;DHT22;27405;53.316;-6.294;2022-08-01T08:03:05;16.60;81.50
41720;DHT22;27405;53.316;-6.294;2022-08-01T08:05:31;16.60;81.30
41720;DHT22;27405;53.316;-6.294;2022-08-01T08:08:01;16.70;81.10
41720;DHT22;27405;53.316;-6.294;2022-08-01T08:10:27;16.70;81.00
41720;DHT22;27405;53.316;-6.294;2022-08-01T08:12:52;16.80;80.80
41720;DHT22;27405;53.316;-6.294;2022-08-01T08:15:18;16.90;80.60
41720;DHT22;27405;53.316;-6.294;2022-08-01T08:17:44;17.00;80.50
41720;DHT22;27405;53.316;-6.294;2022-08-01T08:20:09;17.10;80.30
41720;DHT22;27405;53.316;-6.294;2022-08-01T08:22:36;17.20;80.10
41720;DHT22;27405;53.316;-6.294;2022-08-01T08:25:02;17.30;79.90
41720;DHT22;27405;53.316;-6.294;2022-08-01T08:27:27;17.40;79.50
41720;DHT22;27405;53.316;-6.294;2022-08-01T08:29:53;17.50;79.20
41720;DHT22;27405;53.316;-6.294;2022-08-01T08:32:19;17.60;78.90
41720;DHT22;27405;53.316;-6.294;2022-08-01T08:34:44;17.70;78.50
41720;DHT22;27405;53.316;-6.294;2022-08-01T08:37:11;17.70;78.10
41720;DHT22;27405;53.316;-6.294;2022-08-01T08:39:36;17.80;77.80
41720;DHT22;27405;53.316;-6.294;2022-08-01T08:42:06;17.80;77.60
41720;DHT22;27405;53.316;-6.294;2022-08-01T08:44:32;17.80;77.50
41720;DHT22;27405;53.316;-6.294;2022-08-01T08:47:01;17.90;77.50
41720;DHT22;27405;53.316;-6.294;2022-08-01T08:49:28;18.00;77.20
41720;DHT22;27405;53.316;-6.294;2022-08-01T08:52:00;18.20;77.00
41720;DHT22;27405;53.316;-6.294;2022-08-01T08:54:27;18.40;76.60
41720;DHT22;27405;53.316;-6.294;2022-08-01T08:56:54;18.60;75.90
41720;DHT22;27405;53.316;-6.294;2022-08-01T08:59:21;18.80;75.20
41720;DHT22;27405;53.316;-6.294;2022-08-01T09:01:49;18.80;74.70
41720;DHT22;27405;53.316;-6.294;2022-08-01T09:04:15;18.90;74.50
41720;DHT22;27405;53.316;-6.294;2022-08-01T09:06:41;18.90;74.40
41720;DHT22;27405;53.316;-6.294;2022-08-01T09:09:08;19.00;74.20
41720;DHT22;27405;53.316;-6.294;2022-08-01T09:11:34;19.00;74.00
41720;DHT22;27405;53.316;-6.294;2022-08-01T09:16:36;19.20;73.50
41720;DHT22;27405;53.316;-6.294;2022-08-01T09:21:35;19.50;73.40
41720;DHT22;27405;53.316;-6.294;2022-08-01T09:24:01;19.70;73.10
41720;DHT22;27405;53.316;-6.294;2022-08-01T09:26:35;19.90;72.80
41720;DHT22;27405;53.316;-6.294;2022-08-01T09:29:06;20.20;72.20
41720;DHT22;27405;53.316;-6.294;2022-08-01T09:31:43;20.50;71.20
41720;DHT22;27405;53.316;-6.294;2022-08-01T09:34:09;20.70;71.20
41720;DHT22;27405;53.316;-6.294;2022-08-01T09:36:59;20.80;70.10
41720;DHT22;27405;53.316;-6.294;2022-08-01T09:39:30;20.90;69.80
41720;DHT22;27405;53.316;-6.294;2022-08-01T09:41:59;21.00;69.50
41720;DHT22;27405;53.316;-6.294;2022-08-01T09:47:02;21.20;69.80
41720;DHT22;27405;53.316;-6.294;2022-08-01T09:49:37;21.40;68.90
41720;DHT22;27405;53.316;-6.294;2022-08-01T09:52:18;21.50;67.80
41720;DHT22;27405;53.316;-6.294;2022-08-01T09:55:03;21.60;67.80
41720;DHT22;27405;53.316;-6.294;2022-08-01T09:57:29;21.60;67.50
41720;DHT22;27405;53.316;-6.294;2022-08-01T09:59:57;21.70;67.00
41720;DHT22;27405;53.316;-6.294;2022-08-01T10:02:35;21.80;65.90
41720;DHT22;27405;53.316;-6.294;2022-08-01T10:05:07;21.80;65.20
41720;DHT22;27405;53.316;-6.294;2022-08-01T10:07:34;21.80;64.70
41720;DHT22;27405;53.316;-6.294;2022-08-01T10:10:13;21.90;64.60
41720;DHT22;27405;53.316;-6.294;2022-08-01T10:12:40;21.90;64.10
41720;DHT22;27405;53.316;-6.294;2022-08-01T10:15:06;22.00;63.70
41720;DHT22;27405;53.316;-6.294;2022-08-01T10:17:33;22.10;63.60
41720;DHT22;27405;53.316;-6.294;2022-08-01T10:20:02;22.10;62.80
41720;DHT22;27405;53.316;-6.294;2022-08-01T10:22:30;22.10;62.50
41720;DHT22;27405;53.316;-6.294;2022-08-01T10:24:56;22.10;62.50
41720;DHT22;27405;53.316;-6.294;2022-08-01T10:27:25;22.20;62.60
41720;DHT22;27405;53.316;-6.294;2022-08-01T10:30:01;22.20;62.20
41720;DHT22;27405;53.316;-6.294;2022-08-01T10:32:30;22.30;62.00
41720;DHT22;27405;53.316;-6.294;2022-08-01T10:34:56;22.30;61.90
41720;DHT22;27405;53.316;-6.294;2022-08-01T10:37:22;22.40;61.60
41720;DHT22;27405;53.316;-6.294;2022-08-01T10:39:51;22.50;61.30
41720;DHT22;27405;53.316;-6.294;2022-08-01T10:42:17;22.60;61.20
41720;DHT22;27405;53.316;-6.294;2022-08-01T10:44:43;22.70;61.30
41720;DHT22;27405;53.316;-6.294;2022-08-01T10:47:15;22.90;61.10
41720;DHT22;27405;53.316;-6.294;2022-08-01T10:49:58;23.00;60.00
41720;DHT22;27405;53.316;-6.294;2022-08-01T10:52:27;23.10;59.50
41720;DHT22;27405;53.316;-6.294;2022-08-01T10:55:19;23.10;59.40
41720;DHT22;27405;53.316;-6.294;2022-08-01T10:57:47;23.10;59.70
41720;DHT22;27405;53.316;-6.294;2022-08-01T11:00:22;23.20;59.50
41720;DHT22;27405;53.316;-6.294;2022-08-01T11:03:02;23.30;59.00
41720;DHT22;27405;53.316;-6.294;2022-08-01T11:05:33;23.30;58.90
41720;DHT22;27405;53.316;-6.294;2022-08-01T11:08:10;23.30;58.70
41720;DHT22;27405;53.316;-6.294;2022-08-01T11:10:44;23.30;59.30
41720;DHT22;27405;53.316;-6.294;2022-08-01T11:13:10;23.40;59.60
41720;DHT22;27405;53.316;-6.294;2022-08-01T11:15:40;23.50;59.80
41720;DHT22;27405;53.316;-6.294;2022-08-01T11:21:02;23.70;59.40
41720;DHT22;27405;53.316;-6.294;2022-08-01T11:23:29;23.80;59.20
41720;DHT22;27405;53.316;-6.294;2022-08-01T11:28:25;23.70;59.40
41720;DHT22;27405;53.316;-6.294;2022-08-01T11:46:53;22.90;62.00
41720;DHT22;27405;53.316;-6.294;2022-08-01T11:54:53;23.00;62.90
41720;DHT22;27405;53.316;-6.294;2022-08-01T11:57:25;22.90;65.00
41720;DHT22;27405;53.316;-6.294;2022-08-01T11:59:57;22.80;65.70
41720;DHT22;27405;53.316;-6.294;2022-08-01T12:02:25;22.60;66.80
41720;DHT22;27405;53.316;-6.294;2022-08-01T12:05:15;22.50;67.20
41720;DHT22;27405;53.316;-6.294;2022-08-01T12:07:44;22.50;67.10
41720;DHT22;27405;53.316;-6.294;2022-08-01T12:10:16;22.40;67.20
41720;DHT22;27405;53.316;-6.294;2022-08-01T12:12:58;22.30;67.40
41720;DHT22;27405;53.316;-6.294;2022-08-01T12:15:33;22.30;67.70
41720;DHT22;27405;53.316;-6.294;2022-08-01T12:18:01;22.40;67.30
41720;DHT22;27405;53.316;-6.294;2022-08-01T12:20:31;22.50;68.10
41720;DHT22;27405;53.316;-6.294;2022-08-01T12:23:08;22.70;66.90
41720;DHT22;27405;53.316;-6.294;2022-08-01T12:25:35;22.90;67.00
41720;DHT22;27405;53.316;-6.294;2022-08-01T12:28:06;23.00;66.30
41720;DHT22;27405;53.316;-6.294;2022-08-01T12:30:33;23.00;65.30
41720;DHT22;27405;53.316;-6.294;2022-08-01T12:33:01;23.00;65.20
41720;DHT22;27405;53.316;-6.294;2022-08-01T12:35:29;23.00;65.30
41720;DHT22;27405;53.316;-6.294;2022-08-01T12:38:00;23.00;65.20
41720;DHT22;27405;53.316;-6.294;2022-08-01T12:40:31;22.90;65.50
41720;DHT22;27405;53.316;-6.294;2022-08-01T12:42:59;22.90;65.40
41720;DHT22;27405;53.316;-6.294;2022-08-01T12:45:30;22.90;65.50
41720;DHT22;27405;53.316;-6.294;2022-08-01T12:47:58;23.00;65.60
41720;DHT22;27405;53.316;-6.294;2022-08-01T12:50:29;23.20;65.30
41720;DHT22;27405;53.316;-6.294;2022-08-01T12:52:56;23.30;65.10
41720;DHT22;27405;53.316;-6.294;2022-08-01T12:55:26;23.50;64.90
41720;DHT22;27405;53.316;-6.294;2022-08-01T12:58:11;23.60;64.50
41720;DHT22;27405;53.316;-6.294;2022-08-01T13:00:38;23.70;64.40
41720;DHT22;27405;53.316;-6.294;2022-08-01T13:03:10;23.60;64.40
41720;DHT22;27405;53.316;-6.294;2022-08-01T13:05:56;23.60;64.70
41720;DHT22;27405;53.316;-6.294;2022-08-01T13:08:30;23.60;65.10
41720;DHT22;27405;53.316;-6.294;2022-08-01T13:11:02;23.70;64.80
41720;DHT22;27405;53.316;-6.294;2022-08-01T13:13:44;23.70;65.00
41720;DHT22;27405;53.316;-6.294;2022-08-01T13:16:12;23.70;64.70
41720;DHT22;27405;53.316;-6.294;2022-08-01T13:18:38;23.70;64.80
41720;DHT22;27405;53.316;-6.294;2022-08-01T13:21:15;23.50;65.20
41720;DHT22;27405;53.316;-6.294;2022-08-01T13:26:50;23.20;66.10
41720;DHT22;27405;53.316;-6.294;2022-08-01T13:29:17;23.00;66.60
41720;DHT22;27405;53.316;-6.294;2022-08-01T13:31:43;22.80;67.20
41720;DHT22;27405;53.316;-6.294;2022-08-01T13:34:09;22.70;67.70
41720;DHT22;27405;53.316;-6.294;2022-08-01T13:36:36;22.70;68.30
41720;DHT22;27405;53.316;-6.294;2022-08-01T13:39:03;22.60;68.40
41720;DHT22;27405;53.316;-6.294;2022-08-01T13:41:48;22.60;68.70
41720;DHT22;27405;53.316;-6.294;2022-08-01T13:44:14;22.50;68.80
41720;DHT22;27405;53.316;-6.294;2022-08-01T13:46:41;22.40;69.10
41720;DHT22;27405;53.316;-6.294;2022-08-01T13:49:08;22.40;69.30
41720;DHT22;27405;53.316;-6.294;2022-08-01T13:51:34;22.40;69.60
41720;DHT22;27405;53.316;-6.294;2022-08-01T13:54:01;22.30;69.80
41720;DHT22;27405;53.316;-6.294;2022-08-01T13:56:27;22.20;70.00
41720;DHT22;27405;53.316;-6.294;2022-08-01T13:58:56;22.10;70.40
41720;DHT22;27405;53.316;-6.294;2022-08-01T14:01:22;22.20;70.90
41720;DHT22;27405;53.316;-6.294;2022-08-01T14:03:49;22.10;71.10
41720;DHT22;27405;53.316;-6.294;2022-08-01T14:06:17;22.20;71.30
41720;DHT22;27405;53.316;-6.294;2022-08-01T14:08:44;22.30;71.50
41720;DHT22;27405;53.316;-6.294;2022-08-01T14:11:10;22.30;71.30
41720;DHT22;27405;53.316;-6.294;2022-08-01T14:13:36;22.40;71.40
41720;DHT22;27405;53.316;-6.294;2022-08-01T14:16:06;22.30;71.90
41720;DHT22;27405;53.316;-6.294;2022-08-01T14:18:32;22.20;72.30
41720;DHT22;27405;53.316;-6.294;2022-08-01T14:20:58;22.20;72.90
41720;DHT22;27405;53.316;-6.294;2022-08-01T14:23:24;22.00;73.00
41720;DHT22;27405;53.316;-6.294;2022-08-01T14:25:49;22.00;73.60
41720;DHT22;27405;53.316;-6.294;2022-08-01T14:28:16;21.90;73.90
41720;DHT22;27405;53.316;-6.294;2022-08-01T14:30:42;21.90;74.20
41720;DHT22;27405;53.316;-6.294;2022-08-01T14:33:08;21.90;74.40
41720;DHT22;27405;53.316;-6.294;2022-08-01T14:35:34;21.90;74.50
41720;DHT22;27405;53.316;-6.294;2022-08-01T14:38:00;21.80;74.80
41720;DHT22;27405;53.316;-6.294;2022-08-01T14:40:26;21.80;75.10
41720;DHT22;27405;53.316;-6.294;2022-08-01T14:42:51;21.80;75.20
41720;DHT22;27405;53.316;-6.294;2022-08-01T14:45:17;21.80;75.40
41720;DHT22;27405;53.316;-6.294;2022-08-01T14:47:43;21.80;75.30
41720;DHT22;27405;53.316;-6.294;2022-08-01T14:50:11;21.90;75.50
41720;DHT22;27405;53.316;-6.294;2022-08-01T14:52:39;21.90;75.60
41720;DHT22;27405;53.316;-6.294;2022-08-01T14:55:06;21.90;75.90
41720;DHT22;27405;53.316;-6.294;2022-08-01T14:57:32;21.90;76.00
41720;DHT22;27405;53.316;-6.294;2022-08-01T14:59:57;21.90;75.90
41720;DHT22;27405;53.316;-6.294;2022-08-01T15:02:23;21.90;76.20
41720;DHT22;27405;53.316;-6.294;2022-08-01T15:04:50;21.90;75.90
41720;DHT22;27405;53.316;-6.294;2022-08-01T15:07:16;21.80;76.10
41720;DHT22;27405;53.316;-6.294;2022-08-01T15:09:42;21.80;76.60
41720;DHT22;27405;53.316;-6.294;2022-08-01T15:12:09;21.70;77.00
41720;DHT22;27405;53.316;-6.294;2022-08-01T15:14:35;21.70;77.40
41720;DHT22;27405;53.316;-6.294;2022-08-01T15:17:19;21.70;77.70
41720;DHT22;27405;53.316;-6.294;2022-08-01T15:19:47;21.70;78.00
41720;DHT22;27405;53.316;-6.294;2022-08-01T15:22:13;21.70;78.40
41720;DHT22;27405;53.316;-6.294;2022-08-01T15:24:38;21.70;78.50
41720;DHT22;27405;53.316;-6.294;2022-08-01T15:27:04;21.70;78.80
41720;DHT22;27405;53.316;-6.294;2022-08-01T15:29:30;21.80;78.70
41720;DHT22;27405;53.316;-6.294;2022-08-01T15:31:56;21.80;78.70
41720;DHT22;27405;53.316;-6.294;2022-08-01T15:34:22;21.80;79.00
41720;DHT22;27405;53.316;-6.294;2022-08-01T15:36:48;21.80;79.00
41720;DHT22;27405;53.316;-6.294;2022-08-01T15:39:14;21.80;79.20
41720;DHT22;27405;53.316;-6.294;2022-08-01T15:41:40;21.80;79.50
41720;DHT22;27405;53.316;-6.294;2022-08-01T15:44:06;21.80;79.80
41720;DHT22;27405;53.316;-6.294;2022-08-01T15:46:32;21.80;79.90
41720;DHT22;27405;53.316;-6.294;2022-08-01T15:49:02;21.80;79.90
41720;DHT22;27405;53.316;-6.294;2022-08-01T15:51:28;21.80;80.40
41720;DHT22;27405;53.316;-6.294;2022-08-01T15:53:54;21.80;80.30
41720;DHT22;27405;53.316;-6.294;2022-08-01T15:56:20;21.90;80.90
41720;DHT22;27405;53.316;-6.294;2022-08-01T15:58:46;21.90;80.70
41720;DHT22;27405;53.316;-6.294;2022-08-01T16:01:12;22.00;80.10
41720;DHT22;27405;53.316;-6.294;2022-08-01T16:03:37;21.90;80.10
41720;DHT22;27405;53.316;-6.294;2022-08-01T16:06:03;21.90;80.30
41720;DHT22;27405;53.316;-6.294;2022-08-01T16:08:29;21.90;80.20
41720;DHT22;27405;53.316;-6.294;2022-08-01T16:10:55;21.90;80.30
41720;DHT22;27405;53.316;-6.294;2022-08-01T16:13:20;21.90;80.10